sensor_id;sensor_type;location;lat;lon;timestamp;temperature;humidity
3256;DHT22;1640;48.504;9.224;2023-02-28T00:01:10;-2.20;76.90
3256;DHT22;1640;48.504;9.224;2023-02-28T00:03:38;-2.10;77.10
3256;DHT22;1640;48.504;9.224;2023-02-28T00:06:07;-2.10;76.90
3256;DHT22;1640;48.504;9.224;2023-02-28T00:08:35;-2.10;76.80
3256;DHT22;1640;48.504;9.224;2023-02-28T00:11:04;-2.10;76.70
3256;DHT22;1640;48.504;9.224;2023-02-28T00:13:34;-2.10;76.50
3256;DHT22;1640;48.504;9.224;2023-02-28T00:16:04;-2.00;76.80
3256;DHT22;1640;48.504;9.224;2023-02-28T00:18:32;-2.00;76.40
3256;DHT22;1640;48.504;9.224;2023-02-28T00:21:00;-2.00;76.80
3256;DHT22;1640;48.504;9.224;2023-02-28T00:23:28;-2.00;76.40
3256;DHT22;1640;48.504;9.224;2023-02-28T00:25:55;-2.00;76.70
3256;DHT22;1640;48.504;9.224;2023-02-28T00:28:24;-2.00;76.20
3256;DHT22;1640;48.504;9.224;2023-02-28T00:30:53;-2.00;76.70
3256;DHT22;1640;48.504;9.224;2023-02-28T00:33:20;-2.00;75.60
3256;DHT22;1640;48.504;9.224;2023-02-28T00:35:48;-2.00;75.60
3256;DHT22;1640;48.504;9.224;2023-02-28T00:38:16;-2.00;75.50
3256;DHT22;1640;48.504;9.224;2023-02-28T00:40:43;-2.00;75.10
3256;DHT22;1640;48.504;9.224;2023-02-28T00:43:11;-2.00;75.50
3256;DHT22;1640;48.504;9.224;2023-02-28T00:45:38;-2.00;75.50
3256;DHT22;1640;48.504;9.224;2023-02-28T00:48:07;-2.10;74.40
3256;DHT22;1640;48.504;9.224;2023-02-28T00:50:35;-2.10;72.90
3256;DHT22;1640;48.504;9.224;2023-02-28T00:53:03;-2.10;73.50
3256;DHT22;1640;48.504;9.224;2023-02-28T00:55:30;-2.20;72.50
3256;DHT22;1640;48.504;9.224;2023-02-28T00:57:58;-2.20;71.60
3256;DHT22;1640;48.504;9.224;2023-02-28T01:00:25;-2.30;69.80
3256;DHT22;1640;48.504;9.224;2023-02-28T01:02:53;-2.20;69.30
3256;DHT22;1640;48.504;9.224;2023-02-28T01:05:22;-2.20;68.30
3256;DHT22;1640;48.504;9.224;2023-02-28T01:07:50;-2.20;67.30
3256;DHT22;1640;48.504;9.224;2023-02-28T01:10:17;-2.20;66.60
3256;DHT22;1640;48.504;9.224;2023-02-28T01:12:46;-2.20;65.00
3256;DHT22;1640;48.504;9.224;2023-02-28T01:15:14;-2.20;63.00
3256;DHT22;1640;48.504;9.224;2023-02-28T01:17:42;-2.30;61.00
3256;DHT22;1640;48.504;9.224;2023-02-28T01:20:10;-2.20;59.50
3256;DHT22;1640;48.504;9.224;2023-02-28T01:22:39;-2.20;57.80
3256;DHT22;1640;48.504;9.224;2023-02-28T01:25:08;-2.30;56.10
3256;DHT22;1640;48.504;9.224;2023-02-28T01:27:36;-2.30;53.90
3256;DHT22;1640;48.504;9.224;2023-02-28T01:30:06;-2.40;51.20
3256;DHT22;1640;48.504;9.224;2023-02-28T01:32:34;-2.40;49.70
3256;DHT22;1640;48.504;9.224;2023-02-28T01:35:02;-2.40;47.90
3256;DHT22;1640;48.504;9.224;2023-02-28T01:37:30;-2.40;46.60
3256;DHT22;1640;48.504;9.224;2023-02-28T01:39:59;-2.40;46.10
3256;DHT22;1640;48.504;9.224;2023-02-28T01:42:26;-2.40;44.90
3256;DHT22;1640;48.504;9.224;2023-02-28T01:44:59;-2.40;43.00
3256;DHT22;1640;48.504;9.224;2023-02-28T01:47:30;-2.40;41.80
3256;DHT22;1640;48.504;9.224;2023-02-28T01:49:59;-2.40;40.30
3256;DHT22;1640;48.504;9.224;2023-02-28T01:52:29;-2.50;37.10
3256;DHT22;1640;48.504;9.224;2023-02-28T01:55:02;-2.50;35.00
3256;DHT22;1640;48.504;9.224;2023-02-28T01:57:35;-2.50;30.30
3256;DHT22;1640;48.504;9.224;2023-02-28T02:00:07;-2.50;29.80
3256;DHT22;1640;48.504;9.224;2023-02-28T02:02:36;-2.40;29.90
3256;DHT22;1640;48.504;9.224;2023-02-28T02:05:07;-2.50;29.80
3256;DHT22;1640;48.504;9.224;2023-02-28T02:07:37;-2.50;27.90
3256;DHT22;1640;48.504;9.224;2023-02-28T02:10:13;-2.60;25.60
3256;DHT22;1640;48.504;9.224;2023-02-28T02:15:40;-2.60;22.90
3256;DHT22;1640;48.504;9.224;2023-02-28T02:18:17;-2.60;21.70
3256;DHT22;1640;48.504;9.224;2023-02-28T02:24:26;-2.60;20.20
3256;DHT22;1640;48.504;9.224;2023-02-28T02:27:25;-2.70;19.70
3256;DHT22;1640;48.504;9.224;2023-02-28T02:33:09;-2.70;19.60
3256;DHT22;1640;48.504;9.224;2023-02-28T02:35:50;-2.70;20.20
3256;DHT22;1640;48.504;9.224;2023-02-28T02:38:29;-2.70;20.20
3256;DHT22;1640;48.504;9.224;2023-02-28T02:41:05;-2.70;19.80
3256;DHT22;1640;48.504;9.224;2023-02-28T02:43:39;-2.60;20.30
3256;DHT22;1640;48.504;9.224;2023-02-28T02:46:11;-2.60;21.10
3256;DHT22;1640;48.504;9.224;2023-02-28T02:48:42;-2.50;21.50
3256;DHT22;1640;48.504;9.224;2023-02-28T02:51:15;-2.50;24.10
3256;DHT22;1640;48.504;9.224;2023-02-28T02:53:48;-2.50;24.90
3256;DHT22;1640;48.504;9.224;2023-02-28T02:56:19;-2.40;25.10
3256;DHT22;1640;48.504;9.224;2023-02-28T02:58:49;-2.40;25.20
3256;DHT22;1640;48.504;9.224;2023-02-28T03:01:22;-2.40;25.40
3256;DHT22;1640;48.504;9.224;2023-02-28T03:03:56;-2.30;24.40
3256;DHT22;1640;48.504;9.224;2023-02-28T03:06:26;-2.30;23.90
3256;DHT22;1640;48.504;9.224;2023-02-28T03:08:54;-2.30;25.70
3256;DHT22;1640;48.504;9.224;2023-02-28T03:11:21;-2.20;27.50
3256;DHT22;1640;48.504;9.224;2023-02-28T03:13:58;-2.10;25.30
3256;DHT22;1640;48.504;9.224;2023-02-28T03:16:49;-2.00;27.90
3256;DHT22;1640;48.504;9.224;2023-02-28T03:19:32;-1.90;30.30
3256;DHT22;1640;48.504;9.224;2023-02-28T03:22:19;-1.90;34.50
3256;DHT22;1640;48.504;9.224;2023-02-28T03:24:53;-1.90;33.10
3256;DHT22;1640;48.504;9.224;2023-02-28T03:27:25;-1.90;32.60
3256;DHT22;1640;48.504;9.224;2023-02-28T03:30:00;-1.90;33.70
3256;DHT22;1640;48.504;9.224;2023-02-28T03:32:32;-1.80;37.30
3256;DHT22;1640;48.504;9.224;2023-02-28T03:35:05;-1.70;35.00
3256;DHT22;1640;48.504;9.224;2023-02-28T03:37:39;-1.70;39.10
3256;DHT22;1640;48.504;9.224;2023-02-28T03:40:11;-1.70;40.20
3256;DHT22;1640;48.504;9.224;2023-02-28T03:42:42;-1.80;35.40
3256;DHT22;1640;48.504;9.224;2023-02-28T03:45:15;-1.70;32.60
3256;DHT22;1640;48.504;9.224;2023-02-28T03:47:49;-1.70;31.90
3256;DHT22;1640;48.504;9.224;2023-02-28T03:50:20;-1.80;31.50
3256;DHT22;1640;48.504;9.224;2023-02-28T03:52:55;-1.70;27.60
3256;DHT22;1640;48.504;9.224;2023-02-28T03:55:29;-1.70;25.50
3256;DHT22;1640;48.504;9.224;2023-02-28T03:58:03;-1.80;24.80
3256;DHT22;1640;48.504;9.224;2023-02-28T04:00:34;-1.70;23.50
3256;DHT22;1640;48.504;9.224;2023-02-28T04:03:03;-1.70;25.60
3256;DHT22;1640;48.504;9.224;2023-02-28T04:05:31;-1.70;26.70
3256;DHT22;1640;48.504;9.224;2023-02-28T04:08:06;-1.70;24.60
3256;DHT22;1640;48.504;9.224;2023-02-28T04:10:34;-1.60;26.70
3256;DHT22;1640;48.504;9.224;2023-02-28T04:13:01;-1.70;26.90
3256;DHT22;1640;48.504;9.224;2023-02-28T04:15:29;-1.60;26.60
3256;DHT22;1640;48.504;9.224;2023-02-28T04:17:58;-1.70;26.60
3256;DHT22;1640;48.504;9.224;2023-02-28T04:20:25;-1.60;27.50
3256;DHT22;1640;48.504;9.224;2023-02-28T04:22:53;-1.70;26.90
3256;DHT22;1640;48.504;9.224;2023-02-28T04:25:22;-1.60;26.20
3256;DHT22;1640;48.504;9.224;2023-02-28T04:27:49;-1.60;27.80
3256;DHT22;1640;48.504;9.224;2023-02-28T04:30:17;-1.60;27.70
3256;DHT22;1640;48.504;9.224;2023-02-28T04:32:44;-1.60;26.20
3256;DHT22;1640;48.504;9.224;2023-02-28T04:35:12;-1.60;25.70
3256;DHT22;1640;48.504;9.224;2023-02-28T04:37:39;-1.60;27.30
3256;DHT22;1640;48.504;9.224;2023-02-28T04:40:08;-1.60;26.60
3256;DHT22;1640;48.504;9.224;2023-02-28T04:42:37;-1.60;26.70
3256;DHT22;1640;48.504;9.224;2023-02-28T04:45:06;-1.60;26.10
3256;DHT22;1640;48.504;9.224;2023-02-28T04:47:36;-1.50;25.40
3256;DHT22;1640;48.504;9.224;2023-02-28T04:50:04;-1.50;28.60
3256;DHT22;1640;48.504;9.224;2023-02-28T04:52:32;-1.60;26.60
3256;DHT22;1640;48.504;9.224;2023-02-28T04:54:59;-1.50;27.60
3256;DHT22;1640;48.504;9.224;2023-02-28T04:57:27;-1.50;26.40
3256;DHT22;1640;48.504;9.224;2023-02-28T04:59:57;-1.40;28.50
3256;DHT22;1640;48.504;9.224;2023-02-28T05:02:25;-1.50;26.50
3256;DHT22;1640;48.504;9.224;2023-02-28T05:04:52;-1.50;28.10
3256;DHT22;1640;48.504;9.224;2023-02-28T05:07:20;-1.50;27.60
3256;DHT22;1640;48.504;9.224;2023-02-28T05:09:47;-1.50;25.80
3256;DHT22;1640;48.504;9.224;2023-02-28T05:12:15;-1.50;24.00
3256;DHT22;1640;48.504;9.224;2023-02-28T05:14:42;-1.50;25.10
3256;DHT22;1640;48.504;9.224;2023-02-28T05:17:11;-1.50;26.80
3256;DHT22;1640;48.504;9.224;2023-02-28T05:19:39;-1.50;25.60
3256;DHT22;1640;48.504;9.224;2023-02-28T05:22:13;-1.50;25.70
3256;DHT22;1640;48.504;9.224;2023-02-28T05:24:42;-1.50;23.30
3256;DHT22;1640;48.504;9.224;2023-02-28T05:27:10;-1.50;22.50
3256;DHT22;1640;48.504;9.224;2023-02-28T05:29:38;-1.40;22.70
3256;DHT22;1640;48.504;9.224;2023-02-28T05:32:11;-1.40;23.60
3256;DHT22;1640;48.504;9.224;2023-02-28T05:34:40;-1.40;23.50
3256;DHT22;1640;48.504;9.224;2023-02-28T05:37:11;-1.30;23.20
3256;DHT22;1640;48.504;9.224;2023-02-28T05:39:40;-1.30;22.90
3256;DHT22;1640;48.504;9.224;2023-02-28T05:42:07;-1.30;26.20
3256;DHT22;1640;48.504;9.224;2023-02-28T05:44:35;-1.40;26.00
3256;DHT22;1640;48.504;9.224;2023-02-28T05:47:03;-1.40;24.50
3256;DHT22;1640;48.504;9.224;2023-02-28T05:49:32;-1.40;22.10
3256;DHT22;1640;48.504;9.224;2023-02-28T05:51:59;-1.40;23.90
3256;DHT22;1640;48.504;9.224;2023-02-28T05:54:27;-1.40;23.40
3256;DHT22;1640;48.504;9.224;2023-02-28T05:56:54;-1.40;22.70
3256;DHT22;1640;48.504;9.224;2023-02-28T05:59:22;-1.40;22.50
3256;DHT22;1640;48.504;9.224;2023-02-28T06:01:49;-1.40;23.30
3256;DHT22;1640;48.504;9.224;2023-02-28T06:04:20;-1.40;23.60
3256;DHT22;1640;48.504;9.224;2023-02-28T06:06:49;-1.30;23.60
3256;DHT22;1640;48.504;9.224;2023-02-28T06:09:17;-1.30;25.50
3256;DHT22;1640;48.504;9.224;2023-02-28T06:11:46;-1.30;26.60
3256;DHT22;1640;48.504;9.224;2023-02-28T06:14:15;-1.30;28.70
3256;DHT22;1640;48.504;9.224;2023-02-28T06:16:43;-1.40;27.60
3256;DHT22;1640;48.504;9.224;2023-02-28T06:19:11;-1.40;26.00
3256;DHT22;1640;48.504;9.224;2023-02-28T06:21:38;-1.30;26.60
3256;DHT22;1640;48.504;9.224;2023-02-28T06:24:08;-1.20;26.00
3256;DHT22;1640;48.504;9.224;2023-02-28T06:26:36;-1.30;28.60
3256;DHT22;1640;48.504;9.224;2023-02-28T06:29:03;-1.20;31.90
3256;DHT22;1640;48.504;9.224;2023-02-28T06:31:31;-1.20;31.80
3256;DHT22;1640;48.504;9.224;2023-02-28T06:33:59;-1.20;35.40
3256;DHT22;1640;48.504;9.224;2023-02-28T06:36:26;-1.10;34.60
3256;DHT22;1640;48.504;9.224;2023-02-28T06:38:54;-1.20;33.90
3256;DHT22;1640;48.504;9.224;2023-02-28T06:41:25;-1.20;33.50
3256;DHT22;1640;48.504;9.224;2023-02-28T06:43:53;-1.10;34.10
3256;DHT22;1640;48.504;9.224;2023-02-28T06:46:21;-1.10;37.10
3256;DHT22;1640;48.504;9.224;2023-02-28T06:48:49;-1.10;35.80
3256;DHT22;1640;48.504;9.224;2023-02-28T06:51:18;-1.10;38.70
3256;DHT22;1640;48.504;9.224;2023-02-28T06:53:48;-1.10;37.60
3256;DHT22;1640;48.504;9.224;2023-02-28T06:56:18;-1.10;36.90
3256;DHT22;1640;48.504;9.224;2023-02-28T06:58:49;-1.00;36.60
3256;DHT22;1640;48.504;9.224;2023-02-28T07:01:19;-0.80;37.60
3256;DHT22;1640;48.504;9.224;2023-02-28T07:03:49;-0.70;41.50
3256;DHT22;1640;48.504;9.224;2023-02-28T07:06:18;-0.70;43.80
3256;DHT22;1640;48.504;9.224;2023-02-28T07:08:46;-0.70;51.30
3256;DHT22;1640;48.504;9.224;2023-02-28T07:11:13;-0.80;54.70
3256;DHT22;1640;48.504;9.224;2023-02-28T07:13:41;-0.80;56.10
3256;DHT22;1640;48.504;9.224;2023-02-28T07:16:11;-0.80;56.60
3256;DHT22;1640;48.504;9.224;2023-02-28T07:18:38;-0.70;54.60
3256;DHT22;1640;48.504;9.224;2023-02-28T07:21:08;-0.70;59.30
3256;DHT22;1640;48.504;9.224;2023-02-28T07:23:36;-0.60;60.30
3256;DHT22;1640;48.504;9.224;2023-02-28T07:26:05;-0.60;61.60
3256;DHT22;1640;48.504;9.224;2023-02-28T07:28:33;-0.60;63.20
3256;DHT22;1640;48.504;9.224;2023-02-28T07:31:04;-0.60;63.20
3256;DHT22;1640;48.504;9.224;2023-02-28T07:33:33;-0.50;62.40
3256;DHT22;1640;48.504;9.224;2023-02-28T07:36:01;-0.40;63.70
3256;DHT22;1640;48.504;9.224;2023-02-28T07:38:29;-0.40;62.30
3256;DHT22;1640;48.504;9.224;2023-02-28T07:40:57;-0.50;66.00
3256;DHT22;1640;48.504;9.224;2023-02-28T07:43:25;-0.40;66.30
3256;DHT22;1640;48.504;9.224;2023-02-28T07:45:52;-0.40;64.00
3256;DHT22;1640;48.504;9.224;2023-02-28T07:48:20;-0.40;65.90
3256;DHT22;1640;48.504;9.224;2023-02-28T07:50:56;-0.40;66.20
3256;DHT22;1640;48.504;9.224;2023-02-28T07:53:23;-0.30;64.20
3256;DHT22;1640;48.504;9.224;2023-02-28T07:55:54;-0.10;67.50
3256;DHT22;1640;48.504;9.224;2023-02-28T07:58:22;-0.10;68.50
3256;DHT22;1640;48.504;9.224;2023-02-28T08:00:49;-0.10;69.00
3256;DHT22;1640;48.504;9.224;2023-02-28T08:03:18;0.00;69.20
3256;DHT22;1640;48.504;9.224;2023-02-28T08:05:46;0.10;69.50
3256;DHT22;1640;48.504;9.224;2023-02-28T08:08:15;0.10;71.20
3256;DHT22;1640;48.504;9.224;2023-02-28T08:10:44;0.00;70.50
3256;DHT22;1640;48.504;9.224;2023-02-28T08:13:11;0.00;70.80
3256;DHT22;1640;48.504;9.224;2023-02-28T08:15:41;0.10;71.10
3256;DHT22;1640;48.504;9.224;2023-02-28T08:18:09;0.20;72.20
3256;DHT22;1640;48.504;9.224;2023-02-28T08:20:37;0.10;72.50
3256;DHT22;1640;48.504;9.224;2023-02-28T08:23:04;0.10;71.20
3256;DHT22;1640;48.504;9.224;2023-02-28T08:25:33;0.00;72.30
3256;DHT22;1640;48.504;9.224;2023-02-28T08:28:01;0.00;70.30
3256;DHT22;1640;48.504;9.224;2023-02-28T08:30:28;0.00;72.10
3256;DHT22;1640;48.504;9.224;2023-02-28T08:32:56;0.00;72.20
3256;DHT22;1640;48.504;9.224;2023-02-28T08:35:24;0.00;72.10
3256;DHT22;1640;48.504;9.224;2023-02-28T08:37:51;-0.10;70.90
3256;DHT22;1640;48.504;9.224;2023-02-28T08:40:19;0.10;71.30
3256;DHT22;1640;48.504;9.224;2023-02-28T08:42:48;0.20;72.20
3256;DHT22;1640;48.504;9.224;2023-02-28T08:45:16;0.20;71.30
3256;DHT22;1640;48.504;9.224;2023-02-28T08:47:44;0.10;72.20
3256;DHT22;1640;48.504;9.224;2023-02-28T08:50:11;0.20;72.90
3256;DHT22;1640;48.504;9.224;2023-02-28T08:52:42;0.30;73.20
3256;DHT22;1640;48.504;9.224;2023-02-28T08:55:10;0.30;73.90
3256;DHT22;1640;48.504;9.224;2023-02-28T08:57:37;0.40;74.20
3256;DHT22;1640;48.504;9.224;2023-02-28T09:00:08;0.30;73.90
3256;DHT22;1640;48.504;9.224;2023-02-28T09:02:36;0.40;75.10
3256;DHT22;1640;48.504;9.224;2023-02-28T09:05:04;0.50;74.80
3256;DHT22;1640;48.504;9.224;2023-02-28T09:07:32;0.50;75.20
3256;DHT22;1640;48.504;9.224;2023-02-28T09:10:00;0.60;74.60
3256;DHT22;1640;48.504;9.224;2023-02-28T09:12:28;0.60;74.90
3256;DHT22;1640;48.504;9.224;2023-02-28T09:14:59;0.60;75.40
3256;DHT22;1640;48.504;9.224;2023-02-28T09:17:28;0.50;75.50
3256;DHT22;1640;48.504;9.224;2023-02-28T09:19:55;0.60;74.80
3256;DHT22;1640;48.504;9.224;2023-02-28T09:22:23;0.60;74.90
3256;DHT22;1640;48.504;9.224;2023-02-28T09:24:50;0.70;74.60
3256;DHT22;1640;48.504;9.224;2023-02-28T09:27:18;0.90;75.80
3256;DHT22;1640;48.504;9.224;2023-02-28T09:29:46;1.00;75.10
3256;DHT22;1640;48.504;9.224;2023-02-28T09:32:13;1.00;76.10
3256;DHT22;1640;48.504;9.224;2023-02-28T09:34:43;1.00;75.80
3256;DHT22;1640;48.504;9.224;2023-02-28T09:37:10;1.10;75.60
3256;DHT22;1640;48.504;9.224;2023-02-28T09:39:38;1.30;76.20
3256;DHT22;1640;48.504;9.224;2023-02-28T09:42:11;1.40;76.20
3256;DHT22;1640;48.504;9.224;2023-02-28T09:44:47;1.40;76.10
3256;DHT22;1640;48.504;9.224;2023-02-28T09:47:21;1.70;75.90
3256;DHT22;1640;48.504;9.224;2023-02-28T09:49:56;1.70;76.10
3256;DHT22;1640;48.504;9.224;2023-02-28T09:52:29;1.70;76.50
3256;DHT22;1640;48.504;9.224;2023-02-28T09:55:19;1.70;75.90
3256;DHT22;1640;48.504;9.224;2023-02-28T09:57:50;1.70;76.10
3256;DHT22;1640;48.504;9.224;2023-02-28T10:00:21;1.70;76.20
3256;DHT22;1640;48.504;9.224;2023-02-28T10:02:59;1.80;76.40
3256;DHT22;1640;48.504;9.224;2023-02-28T10:05:35;1.80;75.90
3256;DHT22;1640;48.504;9.224;2023-02-28T10:08:11;1.70;76.20
3256;DHT22;1640;48.504;9.224;2023-02-28T10:10:43;1.70;76.20
3256;DHT22;1640;48.504;9.224;2023-02-28T10:13:23;1.70;75.90
3256;DHT22;1640;48.504;9.224;2023-02-28T10:15:56;1.90;76.10
3256;DHT22;1640;48.504;9.224;2023-02-28T10:18:28;2.00;75.80
3256;DHT22;1640;48.504;9.224;2023-02-28T10:20:59;2.00;75.60
3256;DHT22;1640;48.504;9.224;2023-02-28T10:23:32;2.00;75.80
3256;DHT22;1640;48.504;9.224;2023-02-28T10:26:08;2.00;75.60
3256;DHT22;1640;48.504;9.224;2023-02-28T10:28:38;2.30;75.80
3256;DHT22;1640;48.504;9.224;2023-02-28T10:31:08;2.50;75.50
3256;DHT22;1640;48.504;9.224;2023-02-28T10:33:38;2.70;74.60
3256;DHT22;1640;48.504;9.224;2023-02-28T10:36:12;2.90;73.60
3256;DHT22;1640;48.504;9.224;2023-02-28T10:38:41;3.00;73.80
3256;DHT22;1640;48.504;9.224;2023-02-28T10:41:10;2.80;73.10
3256;DHT22;1640;48.504;9.224;2023-02-28T10:43:38;2.70;73.90
3256;DHT22;1640;48.504;9.224;2023-02-28T10:46:13;2.80;73.60
3256;DHT22;1640;48.504;9.224;2023-02-28T10:48:43;2.50;73.50
3256;DHT22;1640;48.504;9.224;2023-02-28T10:51:16;2.60;74.50
3256;DHT22;1640;48.504;9.224;2023-02-28T10:53:47;2.60;74.40
3256;DHT22;1640;48.504;9.224;2023-02-28T10:56:17;2.60;73.90
3256;DHT22;1640;48.504;9.224;2023-02-28T10:58:55;2.60;73.40
3256;DHT22;1640;48.504;9.224;2023-02-28T11:01:34;2.70;74.10
3256;DHT22;1640;48.504;9.224;2023-02-28T11:04:03;2.80;73.80
3256;DHT22;1640;48.504;9.224;2023-02-28T11:06:33;2.90;73.20
3256;DHT22;1640;48.504;9.224;2023-02-28T11:09:04;3.00;72.60
3256;DHT22;1640;48.504;9.224;2023-02-28T11:11:43;3.10;74.40
3256;DHT22;1640;48.504;9.224;2023-02-28T11:14:18;3.20;72.30
3256;DHT22;1640;48.504;9.224;2023-02-28T11:16:47;2.90;72.60
3256;DHT22;1640;48.504;9.224;2023-02-28T11:19:19;2.80;73.10
3256;DHT22;1640;48.504;9.224;2023-02-28T11:21:54;2.90;74.20
3256;DHT22;1640;48.504;9.224;2023-02-28T11:24:25;2.90;73.10
3256;DHT22;1640;48.504;9.224;2023-02-28T11:26:55;2.90;73.10
3256;DHT22;1640;48.504;9.224;2023-02-28T11:29:24;3.00;72.10
3256;DHT22;1640;48.504;9.224;2023-02-28T11:32:07;3.00;72.90
3256;DHT22;1640;48.504;9.224;2023-02-28T11:34:39;2.80;72.90
3256;DHT22;1640;48.504;9.224;2023-02-28T11:37:12;2.90;73.50
3256;DHT22;1640;48.504;9.224;2023-02-28T11:39:41;2.90;73.60
3256;DHT22;1640;48.504;9.224;2023-02-28T11:45:16;3.00;72.90
3256;DHT22;1640;48.504;9.224;2023-02-28T11:47:50;3.10;72.60
3256;DHT22;1640;48.504;9.224;2023-02-28T11:50:42;3.30;73.10
3256;DHT22;1640;48.504;9.224;2023-02-28T11:53:22;3.10;72.60
3256;DHT22;1640;48.504;9.224;2023-02-28T11:55:58;3.00;73.40
3256;DHT22;1640;48.504;9.224;2023-02-28T11:58:37;3.00;72.80
3256;DHT22;1640;48.504;9.224;2023-02-28T12:01:28;2.80;72.90
3256;DHT22;1640;48.504;9.224;2023-02-28T12:04:14;2.70;73.40
3256;DHT22;1640;48.504;9.224;2023-02-28T12:06:50;2.60;74.20
3256;DHT22;1640;48.504;9.224;2023-02-28T12:09:41;2.50;74.50
3256;DHT22;1640;48.504;9.224;2023-02-28T12:12:21;2.60;74.60
3256;DHT22;1640;48.504;9.224;2023-02-28T12:15:01;2.40;74.20
3256;DHT22;1640;48.504;9.224;2023-02-28T12:17:45;2.40;75.10
3256;DHT22;1640;48.504;9.224;2023-02-28T12:20:21;2.30;75.20
3256;DHT22;1640;48.504;9.224;2023-02-28T12:22:59;2.30;75.10
3256;DHT22;1640;48.504;9.224;2023-02-28T12:25:48;2.40;75.60
3256;DHT22;1640;48.504;9.224;2023-02-28T12:28:23;2.40;75.60
3256;DHT22;1640;48.504;9.224;2023-02-28T12:30:56;2.50;75.20
3256;DHT22;1640;48.504;9.224;2023-02-28T12:33:30;2.60;74.90
3256;DHT22;1640;48.504;9.224;2023-02-28T12:36:03;2.60;74.90
3256;DHT22;1640;48.504;9.224;2023-02-28T12:38:37;2.70;74.90
3256;DHT22;1640;48.504;9.224;2023-02-28T12:41:11;2.90;75.20
3256;DHT22;1640;48.504;9.224;2023-02-28T12:43:43;3.00;73.90
3256;DHT22;1640;48.504;9.224;2023-02-28T12:46:16;3.20;73.40
3256;DHT22;1640;48.504;9.224;2023-02-28T12:48:47;3.30;73.10
3256;DHT22;1640;48.504;9.224;2023-02-28T12:51:17;3.50;73.40
3256;DHT22;1640;48.504;9.224;2023-02-28T12:53:54;3.60;72.10
3256;DHT22;1640;48.504;9.224;2023-02-28T12:56:36;3.70;71.50
3256;DHT22;1640;48.504;9.224;2023-02-28T12:59:13;3.80;70.90
3256;DHT22;1640;48.504;9.224;2023-02-28T13:02:00;4.00;70.80
3256;DHT22;1640;48.504;9.224;2023-02-28T13:04:56;4.10;70.30
3256;DHT22;1640;48.504;9.224;2023-02-28T13:07:54;4.10;69.80
3256;DHT22;1640;48.504;9.224;2023-02-28T13:10:34;4.20;69.30
3256;DHT22;1640;48.504;9.224;2023-02-28T13:13:11;4.30;69.50
3256;DHT22;1640;48.504;9.224;2023-02-28T13:15:40;4.30;69.60
3256;DHT22;1640;48.504;9.224;2023-02-28T13:18:29;4.50;69.50
3256;DHT22;1640;48.504;9.224;2023-02-28T13:20:57;4.60;68.60
3256;DHT22;1640;48.504;9.224;2023-02-28T13:29:38;5.00;67.00
3256;DHT22;1640;48.504;9.224;2023-02-28T13:32:27;5.00;66.50
3256;DHT22;1640;48.504;9.224;2023-02-28T13:38:13;4.90;64.50
3256;DHT22;1640;48.504;9.224;2023-02-28T13:40:42;4.70;65.00
3256;DHT22;1640;48.504;9.224;2023-02-28T13:43:10;4.70;65.50
3256;DHT22;1640;48.504;9.224;2023-02-28T13:46:06;4.70;65.90
3256;DHT22;1640;48.504;9.224;2023-02-28T13:48:35;4.90;66.20
3256;DHT22;1640;48.504;9.224;2023-02-28T13:51:28;4.90;66.30
3256;DHT22;1640;48.504;9.224;2023-02-28T13:54:04;4.90;66.20
3256;DHT22;1640;48.504;9.224;2023-02-28T13:56:45;5.10;65.20
3256;DHT22;1640;48.504;9.224;2023-02-28T13:59:23;5.10;65.20
3256;DHT22;1640;48.504;9.224;2023-02-28T14:02:06;5.10;65.20
3256;DHT22;1640;48.504;9.224;2023-02-28T14:04:58;5.20;65.50
3256;DHT22;1640;48.504;9.224;2023-02-28T14:07:30;5.30;63.70
3256;DHT22;1640;48.504;9.224;2023-02-28T14:10:02;5.30;64.50
3256;DHT22;1640;48.504;9.224;2023-02-28T14:12:56;5.30;63.60
3256;DHT22;1640;48.504;9.224;2023-02-28T14:18:28;5.40;63.20
3256;DHT22;1640;48.504;9.224;2023-02-28T14:21:10;5.40;62.70
3256;DHT22;1640;48.504;9.224;2023-02-28T14:24:00;5.50;63.00
3256;DHT22;1640;48.504;9.224;2023-02-28T14:26:45;5.50;63.00
3256;DHT22;1640;48.504;9.224;2023-02-28T14:29:30;5.40;63.20
3256;DHT22;1640;48.504;9.224;2023-02-28T14:32:03;5.40;62.20
3256;DHT22;1640;48.504;9.224;2023-02-28T14:34:42;5.40;62.70
3256;DHT22;1640;48.504;9.224;2023-02-28T14:37:15;5.50;64.20
3256;DHT22;1640;48.504;9.224;2023-02-28T14:39:44;5.50;62.00
3256;DHT22;1640;48.504;9.224;2023-02-28T14:42:31;5.60;62.70
3256;DHT22;1640;48.504;9.224;2023-02-28T14:44:59;5.70;62.40
3256;DHT22;1640;48.504;9.224;2023-02-28T14:47:30;5.70;62.60
3256;DHT22;1640;48.504;9.224;2023-02-28T14:50:01;5.80;62.00
3256;DHT22;1640;48.504;9.224;2023-02-28T14:52:32;5.80;61.00
3256;DHT22;1640;48.504;9.224;2023-02-28T14:55:02;5.80;60.90
3256;DHT22;1640;48.504;9.224;2023-02-28T14:57:33;5.70;61.10
3256;DHT22;1640;48.504;9.224;2023-02-28T15:00:03;5.70;61.60
3256;DHT22;1640;48.504;9.224;2023-02-28T15:02:37;5.70;60.10
3256;DHT22;1640;48.504;9.224;2023-02-28T15:05:24;5.70;60.90
3256;DHT22;1640;48.504;9.224;2023-02-28T15:08:02;5.60;61.00
3256;DHT22;1640;48.504;9.224;2023-02-28T15:10:31;5.70;61.70
3256;DHT22;1640;48.504;9.224;2023-02-28T15:13:00;5.80;61.90
3256;DHT22;1640;48.504;9.224;2023-02-28T15:15:41;5.70;62.40
3256;DHT22;1640;48.504;9.224;2023-02-28T15:18:15;5.70;61.60
3256;DHT22;1640;48.504;9.224;2023-02-28T15:20:45;5.70;61.70
3256;DHT22;1640;48.504;9.224;2023-02-28T15:23:14;5.70;61.30
3256;DHT22;1640;48.504;9.224;2023-02-28T15:25:43;5.70;61.40
3256;DHT22;1640;48.504;9.224;2023-02-28T15:28:14;5.70;60.70
3256;DHT22;1640;48.504;9.224;2023-02-28T15:30:53;5.80;61.00
3256;DHT22;1640;48.504;9.224;2023-02-28T15:33:23;5.90;60.60
3256;DHT22;1640;48.504;9.224;2023-02-28T15:36:03;5.90;61.00
3256;DHT22;1640;48.504;9.224;2023-02-28T15:38:34;5.90;60.90
3256;DHT22;1640;48.504;9.224;2023-02-28T15:41:02;5.80;60.70
3256;DHT22;1640;48.504;9.224;2023-02-28T15:43:35;5.80;61.30
3256;DHT22;1640;48.504;9.224;2023-02-28T15:46:05;5.70;61.10
3256;DHT22;1640;48.504;9.224;2023-02-28T15:48:35;5.70;61.10
3256;DHT22;1640;48.504;9.224;2023-02-28T15:51:07;5.70;61.90
3256;DHT22;1640;48.504;9.224;2023-02-28T15:53:47;5.70;62.20
3256;DHT22;1640;48.504;9.224;2023-02-28T15:56:23;5.60;61.60
3256;DHT22;1640;48.504;9.224;2023-02-28T15:58:54;5.70;62.60
3256;DHT22;1640;48.504;9.224;2023-02-28T16:01:25;5.70;62.00
3256;DHT22;1640;48.504;9.224;2023-02-28T16:03:56;5.60;62.60
3256;DHT22;1640;48.504;9.224;2023-02-28T16:06:37;5.70;62.60
3256;DHT22;1640;48.504;9.224;2023-02-28T16:09:08;5.60;61.90
3256;DHT22;1640;48.504;9.224;2023-02-28T16:11:38;5.50;62.40
3256;DHT22;1640;48.504;9.224;2023-02-28T16:14:12;5.50;62.90
3256;DHT22;1640;48.504;9.224;2023-02-28T16:16:43;5.50;63.20
3256;DHT22;1640;48.504;9.224;2023-02-28T16:19:11;5.40;63.20
3256;DHT22;1640;48.504;9.224;2023-02-28T16:21:40;5.40;62.90
3256;DHT22;1640;48.504;9.224;2023-02-28T16:24:07;5.30;63.30
3256;DHT22;1640;48.504;9.224;2023-02-28T16:26:35;5.20;63.40
3256;DHT22;1640;48.504;9.224;2023-02-28T16:29:05;5.10;64.50
3256;DHT22;1640;48.504;9.224;2023-02-28T16:31:36;5.10;64.70
3256;DHT22;1640;48.504;9.224;2023-02-28T16:34:04;5.00;65.60
3256;DHT22;1640;48.504;9.224;2023-02-28T16:36:32;5.10;65.50
3256;DHT22;1640;48.504;9.224;2023-02-28T16:39:01;5.00;65.00
3256;DHT22;1640;48.504;9.224;2023-02-28T16:41:29;4.90;65.20
3256;DHT22;1640;48.504;9.224;2023-02-28T16:43:58;4.90;65.60
3256;DHT22;1640;48.504;9.224;2023-02-28T16:46:30;4.90;65.50
3256;DHT22;1640;48.504;9.224;2023-02-28T16:48:58;4.90;65.50
3256;DHT22;1640;48.504;9.224;2023-02-28T16:51:26;4.90;65.30
3256;DHT22;1640;48.504;9.224;2023-02-28T16:53:53;4.90;65.30
3256;DHT22;1640;48.504;9.224;2023-02-28T16:56:24;4.90;65.60
3256;DHT22;1640;48.504;9.224;2023-02-28T16:58:57;4.90;65.90
3256;DHT22;1640;48.504;9.224;2023-02-28T17:01:26;4.70;66.60
3256;DHT22;1640;48.504;9.224;2023-02-28T17:03:55;4.50;67.50